Portada
METAR-TAF:

METAR-TAF

Aeroports :

Kuujjuarapik, Quebec, Canadà

latitud: 55-17N, longitud: 077-46W, altitud: 21 m

Observació

L'informe es va fer fa 45 minuts, a les 20:00 UTC
Vent 11 kt del Nord/Nord-Est amb ràfegues de 16 kt
Temperatura -13°C
Humitat 66%
Pressió 1006 hPa
Visibilitat: 14.5 km
Cel clar

METAR: CYGW 282000Z AUTO 03011G16KT 9SM CLR M13/M18 A2972 RMK SLP067

Hora: 15:45 (20:45 UTC)

Pronòstic

L'informe es va fer fa 3 hores i 7 minuts, a les 17:38 UTC
Pronòstic vàlid del 28 a les 18 UTC al 29 a les 06 UTC
Vent 12 kt del Nord-Est
Visibilitat: 10 km
Núvols disperses a una alçada de 2000 ft
Temporalment
l' 28 a les 18 UTC al 29 a les 06 UTC
Cel ennuvolat a una alçada de 2000 ft
Evolucionant progressivament
l' 28 a les 21 UTC al 28 a les 23 UTC
Vent 6 kt del Est

TAF: CYGW 281738Z 2818/2906 04012KT P6SM SCT020 TEMPO 2818/2906 BKN020 BECMG 2821/2823 08006KT RMK FCST BASED ON AUTO OBS. NXT FCST BY 290000Z

Observacions i pronòstics meteorològics de més de 4000 aeroports (METAR i TAF).

Les estacions disponibles són els punts grocs i vermells al mapa.

Posi el ratolí al punt desitjat per veure el nom de l'estació.

Feu clic per veure les observacions i els pronòstics meteorològics.

Per canviar el mapa: feu clic els botons verds amb una creu de color negre per apropar; al botó verd amb un guió per allunyar la imatge; o en les fletxes verdes per a mapes adjacents.


METAR-TAF: